createdAt,value
2018-04-22T00:01:04.968Z,16.90
2018-04-22T00:03:31.065Z,16.60
2018-04-22T00:05:57.183Z,16.90
2018-04-22T00:08:24.017Z,16.50
2018-04-22T00:10:50.188Z,16.60
2018-04-22T00:13:17.040Z,16.40
2018-04-22T00:15:43.884Z,16.40
2018-04-22T00:18:10.714Z,16.40
2018-04-22T00:20:36.811Z,16.30
2018-04-22T00:23:02.958Z,16.40
2018-04-22T00:25:29.059Z,16.30
2018-04-22T00:27:55.904Z,16.30
2018-04-22T00:30:22.086Z,16.30
2018-04-22T00:32:48.355Z,16.30
2018-04-22T00:35:14.479Z,16.20
2018-04-22T00:37:41.375Z,16.20
2018-04-22T00:40:07.458Z,16.20
2018-04-22T00:42:33.534Z,16.20
2018-04-22T00:44:59.636Z,16.20
2018-04-22T00:47:25.875Z,16.20
2018-04-22T00:49:51.977Z,16.20
2018-04-22T00:52:18.060Z,16.10
2018-04-22T00:54:44.188Z,16.10
2018-04-22T00:57:10.355Z,16.10
2018-04-22T00:59:36.492Z,16.10
2018-04-22T01:02:02.594Z,16.10
2018-04-22T01:04:29.443Z,16.00
2018-04-22T01:06:56.895Z,16.00
2018-04-22T01:09:23.001Z,16.00
2018-04-22T01:11:49.108Z,15.90
2018-04-22T01:14:15.968Z,15.90
2018-04-22T01:16:42.063Z,15.90
2018-04-22T01:19:08.171Z,15.90
2018-04-22T01:21:34.278Z,15.80
2018-04-22T01:24:01.102Z,15.80
2018-04-22T01:26:27.187Z,16.00
2018-04-22T01:28:53.278Z,15.80
2018-04-22T01:31:19.382Z,15.90
2018-04-22T01:33:45.498Z,15.80
2018-04-22T01:36:12.488Z,15.90
2018-04-22T01:38:38.618Z,16.20
2018-04-22T01:41:06.890Z,15.90
2018-04-22T01:43:32.996Z,15.90
2018-04-22T01:45:59.095Z,15.90
2018-04-22T01:48:25.227Z,15.90
2018-04-22T01:50:51.318Z,15.90
2018-04-22T01:53:17.768Z,15.80
2018-04-22T01:55:43.870Z,15.70
2018-04-22T01:58:09.988Z,15.70
2018-04-22T02:00:36.108Z,15.70
2018-04-22T02:03:02.967Z,15.70
2018-04-22T02:05:29.996Z,15.70
2018-04-22T02:07:56.132Z,15.70
2018-04-22T02:10:22.299Z,15.60
2018-04-22T02:12:49.141Z,15.60
2018-04-22T02:15:15.247Z,15.40
2018-04-22T02:17:41.351Z,15.60
2018-04-22T02:20:07.454Z,15.60
2018-04-22T02:22:34.293Z,15.60
2018-04-22T02:25:00.385Z,15.60
2018-04-22T02:27:26.473Z,15.60
2018-04-22T02:29:52.570Z,15.60
2018-04-22T02:32:18.642Z,15.60
2018-04-22T02:34:44.740Z,15.60
2018-04-22T02:37:10.855Z,15.80
2018-04-22T02:39:36.928Z,15.60
2018-04-22T02:42:03.035Z,15.60
2018-04-22T02:44:29.117Z,16.00
2018-04-22T02:46:56.987Z,15.70
2018-04-22T02:49:23.177Z,15.70
2018-04-22T02:51:50.184Z,15.70
2018-04-22T02:54:16.286Z,15.70
2018-04-22T02:56:43.121Z,15.70
2018-04-22T02:59:09.210Z,15.80
2018-04-22T03:01:35.320Z,16.10
2018-04-22T03:04:02.179Z,15.70
2018-04-22T03:06:28.254Z,15.70
2018-04-22T03:08:54.367Z,15.80
2018-04-22T03:11:20.464Z,15.90
2018-04-22T03:13:46.579Z,15.70
2018-04-22T03:16:12.683Z,16.00
2018-04-22T03:18:38.833Z,15.70
2018-04-22T03:21:04.939Z,15.30
2018-04-22T03:23:31.786Z,15.70
2018-04-22T03:25:57.901Z,16.10
2018-04-22T03:28:23.999Z,15.70
2018-04-22T03:30:50.220Z,15.70
2018-04-22T03:33:17.052Z,15.60
2018-04-22T03:35:43.156Z,15.60
2018-04-22T03:38:09.406Z,15.70
2018-04-22T03:40:35.506Z,15.60
2018-04-22T03:43:02.348Z,15.60
2018-04-22T03:45:28.473Z,15.50
2018-04-22T03:47:54.640Z,16.10
2018-04-22T03:50:21.505Z,15.50
2018-04-22T03:52:47.624Z,16.00
2018-04-22T03:55:14.512Z,15.40
2018-04-22T03:57:40.647Z,15.40
2018-04-22T04:00:06.768Z,15.50
2018-04-22T04:02:33.633Z,15.40
2018-04-22T04:05:00.487Z,15.40
2018-04-22T04:07:27.318Z,15.50
2018-04-22T04:09:53.442Z,15.50
2018-04-22T04:12:22.092Z,15.60
2018-04-22T04:14:48.192Z,15.40
2018-04-22T04:17:14.275Z,15.30
2018-04-22T04:19:52.789Z,15.30
2018-04-22T04:22:31.268Z,15.30
2018-04-22T04:28:12.380Z,15.30
2018-04-22T04:30:38.719Z,15.30
2018-04-22T04:33:04.998Z,15.70
2018-04-22T04:35:31.312Z,15.30
2018-04-22T04:37:57.612Z,15.30
2018-04-22T04:40:23.927Z,15.20
2018-04-22T04:42:50.333Z,15.20
2018-04-22T04:45:17.376Z,15.20
2018-04-22T04:47:43.917Z,15.10
2018-04-22T04:50:10.228Z,15.30
2018-04-22T04:52:37.536Z,15.20
2018-04-22T04:55:04.597Z,15.30
2018-04-22T04:57:30.870Z,15.30
2018-04-22T04:59:57.195Z,15.30
2018-04-22T05:02:23.556Z,15.40
2018-04-22T05:04:49.855Z,15.40
2018-04-22T05:07:16.163Z,15.40
2018-04-22T05:09:43.198Z,15.50
2018-04-22T05:12:11.547Z,15.50
2018-04-22T05:14:38.043Z,15.50
2018-04-22T05:17:04.335Z,15.60
2018-04-22T05:19:30.628Z,15.80
2018-04-22T05:21:57.252Z,15.60
2018-04-22T05:24:23.625Z,15.70
2018-04-22T05:26:49.870Z,15.70
2018-04-22T05:29:17.679Z,15.70
2018-04-22T05:31:44.010Z,15.70
2018-04-22T05:34:10.382Z,15.80
2018-04-22T05:36:36.671Z,15.80
2018-04-22T05:39:05.782Z,15.80
2018-04-22T05:41:34.226Z,15.80
2018-04-22T05:44:00.510Z,15.80
2018-04-22T05:46:26.811Z,16.00
2018-04-22T05:48:53.108Z,15.90
2018-04-22T05:51:19.385Z,16.00
2018-04-22T05:53:45.654Z,16.00
2018-04-22T05:56:11.951Z,16.10
2018-04-22T05:58:39.002Z,16.30
2018-04-22T06:01:08.179Z,16.40
2018-04-22T06:03:34.462Z,16.40
2018-04-22T06:06:01.503Z,16.50
2018-04-22T06:08:29.179Z,16.50
2018-04-22T06:10:55.501Z,16.60
2018-04-22T06:13:21.802Z,16.70
2018-04-22T06:15:48.849Z,16.90
2018-04-22T06:18:15.902Z,17.10
2018-04-22T06:20:42.230Z,17.00
2018-04-22T06:23:08.567Z,17.20
2018-04-22T06:25:34.847Z,17.30
2018-04-22T06:28:01.895Z,17.60
2018-04-22T06:30:28.198Z,17.60
2018-04-22T06:32:54.621Z,17.80
2018-04-22T06:35:20.924Z,18.00
2018-04-22T06:37:47.255Z,18.10
2018-04-22T06:40:14.345Z,18.30
2018-04-22T06:42:41.361Z,18.40
2018-04-22T06:45:07.679Z,18.70
2018-04-22T06:47:33.989Z,18.60
2018-04-22T06:50:00.274Z,18.50
2018-04-22T06:52:28.719Z,18.80
2018-04-22T06:54:55.958Z,18.90
2018-04-22T06:57:22.246Z,18.90
2018-04-22T06:59:48.560Z,19.00
2018-04-22T07:02:15.604Z,19.50
2018-04-22T07:04:41.932Z,19.50
2018-04-22T07:07:08.231Z,19.40
2018-04-22T07:09:34.534Z,19.60
2018-04-22T07:12:00.835Z,19.80
2018-04-22T07:14:27.134Z,19.80
2018-04-22T07:16:53.420Z,19.90
2018-04-22T07:19:19.718Z,19.90
2018-04-22T07:21:46.019Z,20.10
2018-04-22T07:24:13.208Z,20.40
2018-04-22T07:26:39.543Z,20.40
2018-04-22T07:29:05.816Z,20.60
2018-04-22T07:31:33.406Z,20.80
2018-04-22T07:34:00.485Z,21.00
2018-04-22T07:36:27.511Z,21.40
2018-04-22T07:38:53.802Z,21.40
2018-04-22T07:41:20.806Z,22.60
2018-04-22T07:43:47.104Z,22.60
2018-04-22T07:46:13.414Z,23.70
2018-04-22T07:48:42.234Z,25.10
2018-04-22T07:51:09.742Z,27.60
2018-04-22T07:53:36.098Z,27.50
2018-04-22T07:56:04.003Z,28.90
2018-04-22T07:58:30.295Z,30.00
2018-04-22T08:00:56.578Z,30.60
2018-04-22T08:03:22.933Z,31.20
2018-04-22T08:05:49.293Z,32.00
2018-04-22T08:08:16.329Z,33.20
2018-04-22T08:10:42.616Z,33.20
2018-04-22T08:13:09.875Z,34.20
2018-04-22T08:15:36.182Z,34.00
2018-04-22T08:18:02.490Z,34.60
2018-04-22T08:20:29.155Z,35.10
2018-04-22T08:22:55.607Z,35.10
2018-04-22T08:25:21.863Z,35.20
2018-04-22T08:27:48.280Z,34.90
2018-04-22T08:30:15.337Z,33.00
2018-04-22T08:32:41.681Z,32.90
2018-04-22T08:35:07.967Z,32.10
2018-04-22T08:37:34.234Z,31.10
2018-04-22T08:40:00.539Z,30.30
2018-04-22T08:42:26.916Z,29.80
2018-04-22T08:44:54.066Z,28.50
2018-04-22T08:47:20.203Z,28.50
2018-04-22T08:49:46.378Z,28.10
2018-04-22T08:52:12.483Z,27.70
2018-04-22T08:54:38.623Z,27.40
2018-04-22T08:57:04.803Z,27.10
2018-04-22T08:59:31.704Z,26.50
2018-04-22T09:01:57.840Z,26.50
2018-04-22T09:04:24.045Z,26.10
2018-04-22T09:06:50.306Z,26.20
2018-04-22T09:09:18.444Z,26.30
2018-04-22T09:11:45.471Z,26.40
2018-04-22T09:14:11.564Z,26.40
2018-04-22T09:16:37.871Z,26.50
2018-04-22T09:19:04.941Z,26.50
2018-04-22T09:21:31.335Z,26.50
2018-04-22T09:23:57.748Z,26.60
2018-04-22T09:26:24.050Z,26.60
2018-04-22T09:28:50.515Z,26.90
2018-04-22T09:31:16.818Z,26.80
2018-04-22T09:33:43.114Z,26.90
2018-04-22T09:36:09.472Z,27.00
2018-04-22T09:38:42.346Z,27.00
2018-04-22T09:41:08.455Z,27.10
2018-04-22T09:43:34.551Z,27.20
2018-04-22T09:46:01.395Z,27.00
2018-04-22T09:48:27.498Z,27.00
2018-04-22T09:50:54.330Z,27.10
2018-04-22T09:53:21.187Z,27.10
2018-04-22T09:55:48.949Z,27.10
2018-04-22T09:58:15.305Z,27.00
2018-04-22T10:00:41.692Z,27.10
2018-04-22T10:03:08.113Z,27.00
2018-04-22T10:05:40.409Z,27.10
2018-04-22T10:08:08.918Z,27.10
2018-04-22T10:10:35.104Z,27.10
2018-04-22T10:13:01.238Z,27.30
2018-04-22T10:15:27.340Z,27.20
2018-04-22T10:17:53.450Z,27.20
2018-04-22T10:20:20.306Z,27.40
2018-04-22T10:22:46.386Z,27.40
2018-04-22T10:25:12.496Z,27.60
2018-04-22T10:27:42.042Z,27.80
2018-04-22T10:30:08.131Z,27.70
2018-04-22T10:32:34.258Z,27.80
2018-04-22T10:35:00.558Z,27.50
2018-04-22T10:37:26.878Z,27.40
2018-04-22T10:39:53.276Z,27.50
2018-04-22T10:42:20.345Z,27.50
2018-04-22T10:44:46.640Z,27.40
2018-04-22T10:47:17.182Z,27.40
2018-04-22T10:49:43.470Z,27.40
2018-04-22T10:52:10.566Z,27.50
2018-04-22T10:54:36.658Z,27.60
2018-04-22T10:57:02.946Z,27.80
2018-04-22T10:59:29.966Z,28.10
2018-04-22T11:01:56.275Z,28.10
2018-04-22T11:04:24.805Z,28.00
2018-04-22T11:06:50.920Z,28.10
2018-04-22T11:09:17.950Z,28.00
2018-04-22T11:11:44.279Z,28.00
2018-04-22T11:14:10.372Z,28.20
2018-04-22T11:16:36.675Z,28.20
2018-04-22T11:19:02.954Z,28.30
2018-04-22T11:21:31.645Z,28.20
2018-04-22T11:23:57.935Z,28.40
2018-04-22T11:26:25.086Z,28.30
2018-04-22T11:28:51.374Z,28.30
2018-04-22T11:31:18.443Z,28.40
2018-04-22T11:33:45.263Z,28.40
2018-04-22T11:36:11.567Z,28.30
2018-04-22T11:38:40.360Z,28.40
2018-04-22T11:41:06.662Z,28.60
2018-04-22T11:43:32.937Z,28.80
2018-04-22T11:45:59.247Z,28.80
2018-04-22T11:48:25.466Z,28.90
2018-04-22T11:50:52.500Z,29.20
2018-04-22T11:53:18.891Z,29.20
2018-04-22T11:55:44.969Z,29.30
2018-04-22T11:58:11.264Z,29.30
2018-04-22T12:00:37.578Z,29.30
2018-04-22T12:03:04.622Z,29.30
2018-04-22T12:05:30.813Z,29.20
2018-04-22T12:07:57.193Z,29.20
2018-04-22T12:10:23.470Z,29.10
2018-04-22T12:12:50.663Z,29.20
2018-04-22T12:15:16.754Z,29.30
2018-04-22T12:17:42.946Z,29.20
2018-04-22T12:20:09.067Z,29.40
2018-04-22T12:22:35.153Z,29.60
2018-04-22T12:25:01.454Z,29.60
2018-04-22T12:27:27.753Z,29.70
2018-04-22T12:29:54.034Z,29.60
2018-04-22T12:32:21.116Z,29.50
2018-04-22T12:34:47.522Z,29.50
2018-04-22T12:37:13.914Z,29.50
2018-04-22T12:39:44.259Z,29.40
2018-04-22T12:42:10.565Z,29.40
2018-04-22T12:44:37.849Z,29.40
2018-04-22T12:47:04.216Z,29.40
2018-04-22T12:49:30.517Z,29.50
2018-04-22T12:51:56.795Z,29.40
2018-04-22T12:54:23.096Z,29.50
2018-04-22T12:56:50.247Z,29.60
2018-04-22T12:59:16.621Z,29.60
2018-04-22T13:01:42.857Z,29.60
2018-04-22T13:04:10.215Z,29.50
2018-04-22T13:06:36.312Z,29.40
2018-04-22T13:09:02.615Z,29.40
2018-04-22T13:11:29.775Z,29.30
2018-04-22T13:13:55.880Z,29.30
2018-04-22T13:16:22.211Z,29.30
2018-04-22T13:18:48.517Z,29.30
2018-04-22T13:21:14.920Z,29.40
2018-04-22T13:23:41.254Z,29.40
2018-04-22T13:26:07.603Z,29.60
2018-04-22T13:28:33.898Z,29.70
2018-04-22T13:31:00.618Z,29.60
2018-04-22T13:33:27.695Z,29.40
2018-04-22T13:35:54.089Z,29.40
2018-04-22T13:38:20.372Z,29.30
2018-04-22T13:40:46.676Z,29.30
2018-04-22T13:43:12.995Z,28.90
2018-04-22T13:45:39.291Z,28.70
2018-04-22T13:48:06.446Z,28.60
2018-04-22T13:50:32.735Z,28.60
2018-04-22T13:52:58.826Z,28.60
2018-04-22T13:55:24.924Z,28.60
2018-04-22T13:57:51.082Z,28.50
2018-04-22T14:00:17.176Z,28.20
2018-04-22T14:02:46.554Z,28.10
2018-04-22T14:05:14.294Z,28.00
2018-04-22T14:07:42.879Z,27.90
2018-04-22T14:10:08.998Z,27.90
2018-04-22T14:12:35.071Z,27.80
2018-04-22T14:17:41.787Z,27.50
2018-04-22T14:20:21.381Z,26.90
2018-04-22T14:22:47.852Z,26.00
2018-04-22T14:25:13.959Z,25.40
2018-04-22T14:27:40.036Z,24.90
2018-04-22T14:30:06.131Z,24.10
2018-04-22T14:32:35.343Z,23.80
2018-04-22T14:35:01.451Z,23.50
2018-04-22T14:37:28.468Z,23.10
2018-04-22T14:39:54.560Z,23.10
2018-04-22T14:42:21.405Z,22.90
2018-04-22T14:45:00.573Z,22.90
2018-04-22T14:47:26.699Z,23.00
2018-04-22T14:49:53.528Z,23.10
2018-04-22T14:52:19.620Z,23.10
2018-04-22T14:54:45.711Z,23.10
2018-04-22T14:57:11.806Z,23.20
2018-04-22T14:59:37.919Z,23.30
2018-04-22T15:02:04.102Z,23.40
2018-04-22T15:04:30.535Z,23.30
2018-04-22T15:06:56.697Z,23.40
2018-04-22T15:09:23.048Z,23.40
2018-04-22T15:11:49.268Z,23.20
2018-04-22T15:14:15.351Z,23.50
2018-04-22T15:16:41.547Z,23.50
2018-04-22T15:19:07.651Z,23.40
2018-04-22T15:21:34.542Z,23.40
2018-04-22T15:24:00.774Z,23.40
2018-04-22T15:26:27.256Z,23.40
2018-04-22T15:28:53.347Z,23.40
2018-04-22T15:31:19.461Z,23.40
2018-04-22T15:33:45.550Z,23.50
2018-04-22T15:36:11.683Z,23.80
2018-04-22T15:38:37.835Z,23.30
2018-04-22T15:41:03.968Z,23.30
2018-04-22T15:43:30.050Z,23.20
2018-04-22T15:45:56.235Z,23.00
2018-04-22T15:48:22.324Z,22.90
2018-04-22T15:50:48.416Z,22.90
2018-04-22T15:53:14.529Z,22.90
2018-04-22T15:55:41.420Z,22.80
2018-04-22T15:58:07.579Z,22.80
2018-04-22T16:00:33.667Z,22.80
2018-04-22T16:02:59.966Z,22.80
2018-04-22T16:05:26.090Z,22.90
2018-04-22T16:07:52.199Z,23.00
2018-04-22T16:10:19.065Z,23.20
2018-04-22T16:12:45.177Z,23.20
2018-04-22T16:15:15.039Z,23.60
2018-04-22T16:17:42.092Z,23.30
2018-04-22T16:20:08.292Z,23.30
2018-04-22T16:22:34.439Z,23.40
2018-04-22T16:25:00.533Z,23.40
2018-04-22T16:27:26.762Z,23.40
2018-04-22T16:29:58.188Z,23.30
2018-04-22T16:32:24.278Z,23.30
2018-04-22T16:34:50.804Z,23.30
2018-04-22T16:37:17.068Z,23.10
2018-04-22T16:39:43.175Z,23.00
2018-04-22T16:42:09.259Z,23.10
2018-04-22T16:44:35.397Z,23.30
2018-04-22T16:47:04.953Z,23.10
2018-04-22T16:49:31.153Z,23.00
2018-04-22T16:51:57.241Z,22.90
2018-04-22T16:54:23.420Z,23.00
2018-04-22T16:56:50.438Z,23.00
2018-04-22T16:59:17.522Z,22.90
2018-04-22T17:01:44.002Z,23.20
2018-04-22T17:04:10.822Z,22.90
2018-04-22T17:06:37.133Z,22.90
2018-04-22T17:09:03.226Z,23.00
2018-04-22T17:11:30.043Z,23.00
2018-04-22T17:13:56.124Z,23.00
2018-04-22T17:16:22.310Z,23.10
2018-04-22T17:18:48.511Z,23.10
2018-04-22T17:21:14.699Z,23.10
2018-04-22T17:23:40.937Z,23.20
2018-04-22T17:26:07.147Z,23.20
2018-04-22T17:28:33.298Z,23.30
2018-04-22T17:31:02.444Z,23.40
2018-04-22T17:33:28.522Z,23.20
2018-04-22T17:35:54.663Z,23.20
2018-04-22T17:38:20.772Z,23.20
2018-04-22T17:40:47.003Z,23.10
2018-04-22T17:43:13.103Z,23.00
2018-04-22T17:45:39.230Z,22.90
2018-04-22T17:48:06.043Z,22.80
2018-04-22T17:50:32.148Z,22.80
2018-04-22T17:52:58.990Z,22.70
2018-04-22T17:55:25.111Z,22.70
2018-04-22T17:57:51.273Z,22.70
2018-04-22T18:00:17.508Z,22.60
2018-04-22T18:02:44.358Z,22.60
2018-04-22T18:05:10.470Z,22.60
2018-04-22T18:07:36.758Z,22.50
2018-04-22T18:10:02.983Z,22.50
2018-04-22T18:12:29.080Z,22.40
2018-04-22T18:14:55.174Z,22.40
2018-04-22T18:17:21.307Z,22.30
2018-04-22T18:19:47.417Z,22.30
2018-04-22T18:22:13.501Z,22.30
2018-04-22T18:24:40.452Z,22.20
2018-04-22T18:27:07.340Z,22.10
2018-04-22T18:29:34.250Z,22.10
2018-04-22T18:32:00.486Z,22.00
2018-04-22T18:34:26.576Z,22.10
2018-04-22T18:36:54.147Z,22.10
2018-04-22T18:39:21.724Z,22.10
2018-04-22T18:41:48.756Z,22.10
2018-04-22T18:44:14.913Z,22.10
2018-04-22T18:46:41.376Z,22.10
2018-04-22T18:49:08.290Z,22.20
2018-04-22T18:51:34.442Z,22.20
2018-04-22T18:54:00.556Z,22.20
2018-04-22T18:56:26.711Z,22.20
2018-04-22T18:58:52.795Z,22.30
2018-04-22T19:01:18.883Z,22.30
2018-04-22T19:03:44.979Z,22.30
2018-04-22T19:06:11.083Z,22.30
2018-04-22T19:08:37.191Z,22.30
2018-04-22T19:11:03.332Z,22.30
2018-04-22T19:13:29.592Z,22.40
2018-04-22T19:15:55.694Z,22.20
2018-04-22T19:18:21.847Z,22.30
2018-04-22T19:20:47.920Z,22.10
2018-04-22T19:23:14.026Z,22.10
2018-04-22T19:25:40.111Z,22.00
2018-04-22T19:28:06.935Z,21.90
2018-04-22T19:30:33.024Z,22.30
2018-04-22T19:32:59.114Z,22.00
2018-04-22T19:35:25.414Z,21.90
2018-04-22T19:37:51.479Z,22.10
2018-04-22T19:40:17.658Z,21.80
2018-04-22T19:42:43.744Z,21.80
2018-04-22T19:45:10.147Z,21.80
2018-04-22T19:47:36.300Z,21.70
2018-04-22T19:50:03.147Z,21.60
2018-04-22T19:52:29.241Z,21.60
2018-04-22T19:54:55.343Z,21.60
2018-04-22T19:57:27.014Z,21.70
2018-04-22T19:59:53.519Z,21.50
2018-04-22T20:02:19.711Z,21.70
2018-04-22T20:04:45.849Z,21.50
2018-04-22T20:07:12.002Z,21.50
2018-04-22T20:09:38.133Z,21.40
2018-04-22T20:12:04.287Z,21.40
2018-04-22T20:14:30.366Z,21.30
2018-04-22T20:16:56.463Z,21.30
2018-04-22T20:19:22.566Z,21.30
2018-04-22T20:21:48.651Z,21.20
2018-04-22T20:24:14.747Z,21.30
2018-04-22T20:26:41.710Z,21.10
2018-04-22T20:29:10.036Z,21.00
2018-04-22T20:31:36.971Z,21.00
2018-04-22T20:34:03.060Z,20.90
2018-04-22T20:36:29.406Z,20.90
2018-04-22T20:38:55.502Z,20.90
2018-04-22T20:41:21.619Z,20.80
2018-04-22T20:43:47.729Z,20.80
2018-04-22T20:46:13.847Z,20.70
2018-04-22T20:48:40.004Z,20.70
2018-04-22T20:51:06.108Z,20.60
2018-04-22T20:53:32.352Z,20.60
2018-04-22T20:55:58.475Z,20.50
2018-04-22T20:58:24.632Z,20.50
2018-04-22T21:00:50.952Z,20.40
2018-04-22T21:03:17.812Z,20.30
2018-04-22T21:05:44.647Z,20.30
2018-04-22T21:08:10.850Z,20.30
2018-04-22T21:10:36.975Z,20.20
2018-04-22T21:13:03.139Z,20.20
2018-04-22T21:15:29.235Z,20.10
2018-04-22T21:17:56.084Z,20.00
2018-04-22T21:20:24.352Z,20.00
2018-04-22T21:22:50.527Z,20.00
2018-04-22T21:25:16.642Z,20.00
2018-04-22T21:27:42.775Z,20.00
2018-04-22T21:30:08.907Z,19.80
2018-04-22T21:32:34.995Z,19.80
2018-04-22T21:35:01.835Z,19.70
2018-04-22T21:37:28.003Z,19.60
2018-04-22T21:39:54.104Z,19.60
2018-04-22T21:42:20.196Z,19.60
2018-04-22T21:44:47.177Z,19.70
2018-04-22T21:47:13.326Z,19.50
2018-04-22T21:49:39.535Z,19.50
2018-04-22T21:52:05.659Z,19.50
2018-04-22T21:54:32.488Z,19.40
2018-04-22T21:56:58.579Z,19.40
2018-04-22T21:59:24.679Z,19.30
2018-04-22T22:01:50.885Z,19.30
2018-04-22T22:04:16.994Z,19.20
2018-04-22T22:06:43.094Z,19.20
2018-04-22T22:09:10.177Z,19.20
2018-04-22T22:11:36.290Z,19.10
2018-04-22T22:14:02.428Z,19.10
2018-04-22T22:16:28.514Z,19.10
2018-04-22T22:18:54.611Z,19.00
2018-04-22T22:21:21.736Z,19.00
2018-04-22T22:23:47.834Z,19.00
2018-04-22T22:26:13.955Z,19.10
2018-04-22T22:28:40.794Z,18.90
2018-04-22T22:31:06.939Z,19.30
2018-04-22T22:33:33.054Z,18.90
2018-04-22T22:35:59.196Z,18.90
2018-04-22T22:38:25.314Z,18.80
2018-04-22T22:40:51.422Z,18.80
2018-04-22T22:43:18.250Z,18.80
2018-04-22T22:45:44.360Z,18.90
2018-04-22T22:48:10.680Z,18.80
2018-04-22T22:50:36.793Z,18.70
2018-04-22T22:53:03.655Z,18.60
2018-04-22T22:55:30.483Z,18.60
2018-04-22T22:57:56.593Z,18.60
2018-04-22T23:00:22.690Z,18.60
2018-04-22T23:02:49.069Z,18.60
2018-04-22T23:05:15.376Z,18.50
2018-04-22T23:07:42.462Z,18.40
2018-04-22T23:10:08.778Z,18.40
2018-04-22T23:12:35.105Z,18.40
2018-04-22T23:15:01.399Z,18.40
2018-04-22T23:17:27.699Z,18.40
2018-04-22T23:19:54.730Z,18.40
2018-04-22T23:22:21.045Z,18.40
2018-04-22T23:24:47.413Z,18.40
2018-04-22T23:27:13.490Z,18.40
2018-04-22T23:29:39.773Z,18.50
2018-04-22T23:32:06.110Z,18.20
2018-04-22T23:34:32.384Z,18.20
2018-04-22T23:36:58.654Z,18.40
2018-04-22T23:39:25.765Z,18.10
2018-04-22T23:41:52.043Z,18.20
2018-04-22T23:44:18.341Z,18.20
2018-04-22T23:46:45.184Z,18.30
2018-04-22T23:49:11.511Z,18.20
2018-04-22T23:51:38.623Z,18.10
2018-04-22T23:54:04.718Z,18.10
2018-04-22T23:56:31.583Z,18.10
2018-04-22T23:58:57.675Z,18.10
